sensor_id;sensor_type;location;lat;lon;timestamp;P1;durP1;ratioP1;P2;durP2;ratioP2
37677;SDS011;23517;50.390;8.616;2024-03-08T00:00:08;19.90;;;12.10;;
37677;SDS011;23517;50.390;8.616;2024-03-08T00:02:42;20.50;;;12.27;;
37677;SDS011;23517;50.390;8.616;2024-03-08T00:05:12;20.02;;;11.85;;
37677;SDS011;23517;50.390;8.616;2024-03-08T00:07:40;20.27;;;12.27;;
37677;SDS011;23517;50.390;8.616;2024-03-08T00:10:09;21.02;;;12.57;;
37677;SDS011;23517;50.390;8.616;2024-03-08T00:12:45;20.90;;;12.88;;
37677;SDS011;23517;50.390;8.616;2024-03-08T00:15:16;19.70;;;12.48;;
37677;SDS011;23517;50.390;8.616;2024-03-08T00:17:47;22.42;;;13.07;;
37677;SDS011;23517;50.390;8.616;2024-03-08T00:20:15;20.45;;;13.13;;
37677;SDS011;23517;50.390;8.616;2024-03-08T00:22:45;19.85;;;13.40;;
37677;SDS011;23517;50.390;8.616;2024-03-08T00:25:12;21.02;;;13.02;;
37677;SDS011;23517;50.390;8.616;2024-03-08T00:27:39;21.92;;;12.63;;
37677;SDS011;23517;50.390;8.616;2024-03-08T00:30:07;20.60;;;13.27;;
37677;SDS011;23517;50.390;8.616;2024-03-08T00:32:34;22.65;;;13.10;;
37677;SDS011;23517;50.390;8.616;2024-03-08T00:35:02;23.20;;;13.55;;
37677;SDS011;23517;50.390;8.616;2024-03-08T00:37:30;19.92;;;12.82;;
37677;SDS011;23517;50.390;8.616;2024-03-08T00:39:57;22.38;;;12.68;;
37677;SDS011;23517;50.390;8.616;2024-03-08T00:42:23;20.63;;;12.88;;
37677;SDS011;23517;50.390;8.616;2024-03-08T00:44:51;22.10;;;14.18;;
37677;SDS011;23517;50.390;8.616;2024-03-08T00:47:18;24.30;;;13.88;;
37677;SDS011;23517;50.390;8.616;2024-03-08T00:49:45;22.98;;;14.23;;
37677;SDS011;23517;50.390;8.616;2024-03-08T00:52:13;20.83;;;13.40;;
37677;SDS011;23517;50.390;8.616;2024-03-08T00:54:40;22.42;;;13.48;;
37677;SDS011;23517;50.390;8.616;2024-03-08T00:57:07;19.52;;;13.13;;
37677;SDS011;23517;50.390;8.616;2024-03-08T00:59:34;21.10;;;13.30;;
37677;SDS011;23517;50.390;8.616;2024-03-08T01:02:01;26.35;;;14.15;;
37677;SDS011;23517;50.390;8.616;2024-03-08T01:04:28;22.30;;;14.25;;
37677;SDS011;23517;50.390;8.616;2024-03-08T01:06:56;22.42;;;13.57;;
37677;SDS011;23517;50.390;8.616;2024-03-08T01:09:23;21.13;;;13.07;;
37677;SDS011;23517;50.390;8.616;2024-03-08T01:11:51;19.88;;;13.48;;
37677;SDS011;23517;50.390;8.616;2024-03-08T01:14:19;24.92;;;13.73;;
37677;SDS011;23517;50.390;8.616;2024-03-08T01:16:48;22.23;;;13.98;;
37677;SDS011;23517;50.390;8.616;2024-03-08T01:19:19;21.02;;;13.23;;
37677;SDS011;23517;50.390;8.616;2024-03-08T01:21:45;21.10;;;13.88;;
37677;SDS011;23517;50.390;8.616;2024-03-08T01:24:12;24.83;;;13.82;;
37677;SDS011;23517;50.390;8.616;2024-03-08T01:26:39;22.67;;;14.85;;
37677;SDS011;23517;50.390;8.616;2024-03-08T01:29:06;22.67;;;13.52;;
37677;SDS011;23517;50.390;8.616;2024-03-08T01:31:34;21.70;;;13.32;;
37677;SDS011;23517;50.390;8.616;2024-03-08T01:34:02;22.55;;;13.52;;
37677;SDS011;23517;50.390;8.616;2024-03-08T01:36:29;23.17;;;13.82;;
37677;SDS011;23517;50.390;8.616;2024-03-08T01:38:56;21.50;;;12.85;;
37677;SDS011;23517;50.390;8.616;2024-03-08T01:41:23;23.88;;;14.27;;
37677;SDS011;23517;50.390;8.616;2024-03-08T01:43:50;21.05;;;13.40;;
37677;SDS011;23517;50.390;8.616;2024-03-08T01:46:19;21.30;;;13.68;;
37677;SDS011;23517;50.390;8.616;2024-03-08T01:48:50;23.17;;;14.25;;
37677;SDS011;23517;50.390;8.616;2024-03-08T01:51:18;20.45;;;13.40;;
37677;SDS011;23517;50.390;8.616;2024-03-08T01:53:46;20.92;;;13.48;;
37677;SDS011;23517;50.390;8.616;2024-03-08T01:56:14;22.23;;;14.20;;
37677;SDS011;23517;50.390;8.616;2024-03-08T01:58:41;20.13;;;13.32;;
37677;SDS011;23517;50.390;8.616;2024-03-08T02:01:11;21.60;;;13.20;;
37677;SDS011;23517;50.390;8.616;2024-03-08T02:03:41;20.63;;;13.18;;
37677;SDS011;23517;50.390;8.616;2024-03-08T02:06:12;21.85;;;14.52;;
37677;SDS011;23517;50.390;8.616;2024-03-08T02:08:42;22.23;;;13.98;;
37677;SDS011;23517;50.390;8.616;2024-03-08T02:11:16;21.10;;;13.48;;
37677;SDS011;23517;50.390;8.616;2024-03-08T02:13:44;22.13;;;14.00;;
37677;SDS011;23517;50.390;8.616;2024-03-08T02:16:11;23.98;;;15.02;;
37677;SDS011;23517;50.390;8.616;2024-03-08T02:18:38;21.65;;;14.27;;
37677;SDS011;23517;50.390;8.616;2024-03-08T02:21:06;22.95;;;13.80;;
37677;SDS011;23517;50.390;8.616;2024-03-08T02:23:34;22.50;;;14.18;;
37677;SDS011;23517;50.390;8.616;2024-03-08T02:26:02;25.90;;;14.90;;
37677;SDS011;23517;50.390;8.616;2024-03-08T02:28:30;27.67;;;13.77;;
37677;SDS011;23517;50.390;8.616;2024-03-08T02:30:57;22.95;;;13.05;;
37677;SDS011;23517;50.390;8.616;2024-03-08T02:33:25;20.90;;;13.43;;
37677;SDS011;23517;50.390;8.616;2024-03-08T02:35:54;21.80;;;13.10;;
37677;SDS011;23517;50.390;8.616;2024-03-08T02:38:24;21.92;;;13.60;;
37677;SDS011;23517;50.390;8.616;2024-03-08T02:40:52;23.75;;;14.25;;
37677;SDS011;23517;50.390;8.616;2024-03-08T02:43:21;25.95;;;14.35;;
37677;SDS011;23517;50.390;8.616;2024-03-08T02:45:49;27.40;;;15.23;;
37677;SDS011;23517;50.390;8.616;2024-03-08T02:48:18;23.38;;;14.98;;
37677;SDS011;23517;50.390;8.616;2024-03-08T02:50:47;22.77;;;14.02;;
37677;SDS011;23517;50.390;8.616;2024-03-08T02:53:14;21.95;;;13.43;;
37677;SDS011;23517;50.390;8.616;2024-03-08T02:55:41;22.58;;;14.57;;
37677;SDS011;23517;50.390;8.616;2024-03-08T02:58:08;23.73;;;13.57;;
37677;SDS011;23517;50.390;8.616;2024-03-08T03:00:37;21.98;;;14.05;;
37677;SDS011;23517;50.390;8.616;2024-03-08T03:03:07;22.27;;;14.55;;
37677;SDS011;23517;50.390;8.616;2024-03-08T03:05:35;22.55;;;14.07;;
37677;SDS011;23517;50.390;8.616;2024-03-08T03:08:02;25.38;;;15.25;;
37677;SDS011;23517;50.390;8.616;2024-03-08T03:10:36;24.25;;;14.60;;
37677;SDS011;23517;50.390;8.616;2024-03-08T03:13:03;23.77;;;16.17;;
37677;SDS011;23517;50.390;8.616;2024-03-08T03:15:34;26.20;;;15.93;;
37677;SDS011;23517;50.390;8.616;2024-03-08T03:18:01;24.63;;;15.63;;
37677;SDS011;23517;50.390;8.616;2024-03-08T03:20:28;26.27;;;14.90;;
37677;SDS011;23517;50.390;8.616;2024-03-08T03:23:07;24.08;;;14.98;;
37677;SDS011;23517;50.390;8.616;2024-03-08T03:25:35;26.15;;;15.55;;
37677;SDS011;23517;50.390;8.616;2024-03-08T03:28:02;22.95;;;14.65;;
37677;SDS011;23517;50.390;8.616;2024-03-08T03:30:32;24.75;;;16.27;;
37677;SDS011;23517;50.390;8.616;2024-03-08T03:33:00;25.73;;;15.02;;
37677;SDS011;23517;50.390;8.616;2024-03-08T03:35:32;26.80;;;15.20;;
37677;SDS011;23517;50.390;8.616;2024-03-08T03:38:00;24.95;;;14.82;;
37677;SDS011;23517;50.390;8.616;2024-03-08T03:40:36;22.92;;;14.23;;
37677;SDS011;23517;50.390;8.616;2024-03-08T03:43:03;23.92;;;14.63;;
37677;SDS011;23517;50.390;8.616;2024-03-08T03:45:30;24.10;;;15.25;;
37677;SDS011;23517;50.390;8.616;2024-03-08T03:48:03;22.08;;;14.27;;
37677;SDS011;23517;50.390;8.616;2024-03-08T03:50:36;25.45;;;15.07;;
37677;SDS011;23517;50.390;8.616;2024-03-08T03:53:04;25.58;;;15.43;;
37677;SDS011;23517;50.390;8.616;2024-03-08T03:55:38;24.73;;;14.60;;
37677;SDS011;23517;50.390;8.616;2024-03-08T03:58:07;22.85;;;14.88;;
37677;SDS011;23517;50.390;8.616;2024-03-08T04:00:36;22.15;;;14.27;;
37677;SDS011;23517;50.390;8.616;2024-03-08T04:03:02;27.48;;;15.10;;
37677;SDS011;23517;50.390;8.616;2024-03-08T04:05:29;22.98;;;15.27;;
37677;SDS011;23517;50.390;8.616;2024-03-08T04:07:57;22.48;;;14.82;;
37677;SDS011;23517;50.390;8.616;2024-03-08T04:10:24;24.35;;;15.43;;
37677;SDS011;23517;50.390;8.616;2024-03-08T04:12:51;25.50;;;15.43;;
37677;SDS011;23517;50.390;8.616;2024-03-08T04:15:18;24.30;;;15.60;;
37677;SDS011;23517;50.390;8.616;2024-03-08T04:17:45;25.75;;;15.18;;
37677;SDS011;23517;50.390;8.616;2024-03-08T04:20:13;26.38;;;16.42;;
37677;SDS011;23517;50.390;8.616;2024-03-08T04:22:40;25.30;;;15.40;;
37677;SDS011;23517;50.390;8.616;2024-03-08T04:25:07;23.35;;;14.50;;
37677;SDS011;23517;50.390;8.616;2024-03-08T04:27:36;22.08;;;15.10;;
37677;SDS011;23517;50.390;8.616;2024-03-08T04:30:03;24.30;;;15.35;;
37677;SDS011;23517;50.390;8.616;2024-03-08T04:32:30;24.20;;;15.20;;
37677;SDS011;23517;50.390;8.616;2024-03-08T04:34:58;23.05;;;13.93;;
37677;SDS011;23517;50.390;8.616;2024-03-08T04:37:27;24.55;;;16.35;;
37677;SDS011;23517;50.390;8.616;2024-03-08T04:39:55;27.17;;;14.80;;
37677;SDS011;23517;50.390;8.616;2024-03-08T04:42:23;25.33;;;14.95;;
37677;SDS011;23517;50.390;8.616;2024-03-08T04:44:51;24.52;;;15.88;;
37677;SDS011;23517;50.390;8.616;2024-03-08T04:47:19;22.98;;;14.63;;
37677;SDS011;23517;50.390;8.616;2024-03-08T04:49:46;23.02;;;15.35;;
37677;SDS011;23517;50.390;8.616;2024-03-08T04:52:13;23.13;;;13.98;;
37677;SDS011;23517;50.390;8.616;2024-03-08T04:54:40;30.30;;;15.80;;
37677;SDS011;23517;50.390;8.616;2024-03-08T04:57:06;24.60;;;15.32;;
37677;SDS011;23517;50.390;8.616;2024-03-08T04:59:35;23.40;;;14.88;;
37677;SDS011;23517;50.390;8.616;2024-03-08T05:02:02;21.83;;;14.02;;
37677;SDS011;23517;50.390;8.616;2024-03-08T05:04:29;24.20;;;15.20;;
37677;SDS011;23517;50.390;8.616;2024-03-08T05:06:56;24.20;;;14.68;;
37677;SDS011;23517;50.390;8.616;2024-03-08T05:09:23;22.73;;;13.93;;
37677;SDS011;23517;50.390;8.616;2024-03-08T05:11:50;28.35;;;15.00;;
37677;SDS011;23517;50.390;8.616;2024-03-08T05:14:17;21.42;;;14.25;;
37677;SDS011;23517;50.390;8.616;2024-03-08T05:16:46;25.30;;;14.43;;
37677;SDS011;23517;50.390;8.616;2024-03-08T05:19:16;25.52;;;14.77;;
37677;SDS011;23517;50.390;8.616;2024-03-08T05:21:46;25.77;;;15.20;;
37677;SDS011;23517;50.390;8.616;2024-03-08T05:24:15;26.60;;;14.38;;
37677;SDS011;23517;50.390;8.616;2024-03-08T05:26:43;23.27;;;13.73;;
37677;SDS011;23517;50.390;8.616;2024-03-08T05:29:10;20.15;;;13.98;;
37677;SDS011;23517;50.390;8.616;2024-03-08T05:31:48;23.60;;;14.95;;
37677;SDS011;23517;50.390;8.616;2024-03-08T05:34:16;24.23;;;13.27;;
37677;SDS011;23517;50.390;8.616;2024-03-08T05:36:43;23.25;;;13.43;;
37677;SDS011;23517;50.390;8.616;2024-03-08T05:39:11;24.70;;;14.15;;
37677;SDS011;23517;50.390;8.616;2024-03-08T05:41:39;24.40;;;14.18;;
37677;SDS011;23517;50.390;8.616;2024-03-08T05:44:06;24.15;;;14.23;;
37677;SDS011;23517;50.390;8.616;2024-03-08T05:46:34;23.05;;;14.13;;
37677;SDS011;23517;50.390;8.616;2024-03-08T05:49:07;21.70;;;13.30;;
37677;SDS011;23517;50.390;8.616;2024-03-08T05:51:37;24.50;;;14.65;;
37677;SDS011;23517;50.390;8.616;2024-03-08T05:54:06;22.52;;;13.70;;
37677;SDS011;23517;50.390;8.616;2024-03-08T05:56:36;25.90;;;14.50;;
37677;SDS011;23517;50.390;8.616;2024-03-08T05:59:04;23.30;;;14.93;;
37677;SDS011;23517;50.390;8.616;2024-03-08T06:01:31;23.42;;;14.57;;
37677;SDS011;23517;50.390;8.616;2024-03-08T06:04:02;23.27;;;14.45;;
37677;SDS011;23517;50.390;8.616;2024-03-08T06:06:30;27.80;;;15.05;;
37677;SDS011;23517;50.390;8.616;2024-03-08T06:08:57;21.35;;;13.70;;
37677;SDS011;23517;50.390;8.616;2024-03-08T06:11:25;22.35;;;12.95;;
37677;SDS011;23517;50.390;8.616;2024-03-08T06:13:56;23.15;;;13.60;;
37677;SDS011;23517;50.390;8.616;2024-03-08T06:16:26;23.38;;;13.43;;
37677;SDS011;23517;50.390;8.616;2024-03-08T06:18:56;23.15;;;13.88;;
37677;SDS011;23517;50.390;8.616;2024-03-08T06:21:24;22.40;;;13.55;;
37677;SDS011;23517;50.390;8.616;2024-03-08T06:23:54;24.20;;;14.68;;
37677;SDS011;23517;50.390;8.616;2024-03-08T06:26:21;22.58;;;13.75;;
37677;SDS011;23517;50.390;8.616;2024-03-08T06:28:48;23.85;;;13.85;;
37677;SDS011;23517;50.390;8.616;2024-03-08T06:31:15;23.92;;;13.85;;
37677;SDS011;23517;50.390;8.616;2024-03-08T06:33:42;23.55;;;13.57;;
37677;SDS011;23517;50.390;8.616;2024-03-08T06:36:09;21.75;;;13.55;;
37677;SDS011;23517;50.390;8.616;2024-03-08T06:38:38;23.65;;;13.82;;
37677;SDS011;23517;50.390;8.616;2024-03-08T06:41:09;21.05;;;13.70;;
37677;SDS011;23517;50.390;8.616;2024-03-08T06:43:44;22.23;;;13.57;;
37677;SDS011;23517;50.390;8.616;2024-03-08T06:46:14;24.67;;;14.85;;
37677;SDS011;23517;50.390;8.616;2024-03-08T06:48:41;25.15;;;13.98;;
37677;SDS011;23517;50.390;8.616;2024-03-08T06:51:09;22.10;;;14.25;;
37677;SDS011;23517;50.390;8.616;2024-03-08T06:53:37;22.02;;;13.75;;
37677;SDS011;23517;50.390;8.616;2024-03-08T06:56:04;20.60;;;13.50;;
37677;SDS011;23517;50.390;8.616;2024-03-08T06:58:31;26.85;;;14.18;;
37677;SDS011;23517;50.390;8.616;2024-03-08T07:00:58;24.30;;;14.95;;
37677;SDS011;23517;50.390;8.616;2024-03-08T07:03:27;24.15;;;14.93;;
37677;SDS011;23517;50.390;8.616;2024-03-08T07:05:56;25.23;;;16.67;;
37677;SDS011;23517;50.390;8.616;2024-03-08T07:10:54;29.85;;;17.30;;
37677;SDS011;23517;50.390;8.616;2024-03-08T07:13:21;29.45;;;18.98;;
37677;SDS011;23517;50.390;8.616;2024-03-08T07:15:47;33.00;;;18.38;;
37677;SDS011;23517;50.390;8.616;2024-03-08T07:18:14;32.67;;;19.20;;
37677;SDS011;23517;50.390;8.616;2024-03-08T07:20:41;31.85;;;19.52;;
37677;SDS011;23517;50.390;8.616;2024-03-08T07:23:12;30.35;;;18.50;;
37677;SDS011;23517;50.390;8.616;2024-03-08T07:25:59;31.75;;;17.88;;
37677;SDS011;23517;50.390;8.616;2024-03-08T07:28:27;28.65;;;17.27;;
37677;SDS011;23517;50.390;8.616;2024-03-08T07:30:57;30.23;;;17.50;;
37677;SDS011;23517;50.390;8.616;2024-03-08T07:33:49;29.15;;;17.65;;
37677;SDS011;23517;50.390;8.616;2024-03-08T07:36:17;27.20;;;16.75;;
37677;SDS011;23517;50.390;8.616;2024-03-08T07:38:43;30.52;;;17.08;;
37677;SDS011;23517;50.390;8.616;2024-03-08T07:41:13;25.63;;;16.92;;
37677;SDS011;23517;50.390;8.616;2024-03-08T07:43:41;25.67;;;16.88;;
37677;SDS011;23517;50.390;8.616;2024-03-08T07:46:10;25.65;;;17.45;;
37677;SDS011;23517;50.390;8.616;2024-03-08T07:48:37;29.45;;;17.73;;
37677;SDS011;23517;50.390;8.616;2024-03-08T07:51:06;26.33;;;16.35;;
37677;SDS011;23517;50.390;8.616;2024-03-08T07:53:35;25.35;;;17.10;;
37677;SDS011;23517;50.390;8.616;2024-03-08T07:56:02;23.65;;;16.25;;
37677;SDS011;23517;50.390;8.616;2024-03-08T07:58:31;23.10;;;15.50;;
37677;SDS011;23517;50.390;8.616;2024-03-08T08:01:00;21.90;;;14.63;;
37677;SDS011;23517;50.390;8.616;2024-03-08T08:03:27;20.17;;;14.52;;
37677;SDS011;23517;50.390;8.616;2024-03-08T08:05:53;19.00;;;14.15;;
37677;SDS011;23517;50.390;8.616;2024-03-08T08:08:20;20.33;;;14.27;;
37677;SDS011;23517;50.390;8.616;2024-03-08T08:10:47;19.70;;;14.05;;
37677;SDS011;23517;50.390;8.616;2024-03-08T08:13:14;18.45;;;14.38;;
37677;SDS011;23517;50.390;8.616;2024-03-08T08:15:41;23.23;;;14.85;;
37677;SDS011;23517;50.390;8.616;2024-03-08T08:18:08;19.42;;;14.35;;
37677;SDS011;23517;50.390;8.616;2024-03-08T08:20:35;18.05;;;13.68;;
37677;SDS011;23517;50.390;8.616;2024-03-08T08:23:03;18.60;;;14.32;;
37677;SDS011;23517;50.390;8.616;2024-03-08T08:25:30;19.20;;;14.07;;
37677;SDS011;23517;50.390;8.616;2024-03-08T08:27:57;18.17;;;13.52;;
37677;SDS011;23517;50.390;8.616;2024-03-08T08:30:24;17.83;;;13.68;;
37677;SDS011;23517;50.390;8.616;2024-03-08T08:32:50;18.55;;;15.02;;
37677;SDS011;23517;50.390;8.616;2024-03-08T08:35:17;18.80;;;14.48;;
37677;SDS011;23517;50.390;8.616;2024-03-08T08:37:46;16.33;;;13.35;;
37677;SDS011;23517;50.390;8.616;2024-03-08T08:40:13;16.92;;;14.35;;
37677;SDS011;23517;50.390;8.616;2024-03-08T08:42:44;19.27;;;14.40;;
37677;SDS011;23517;50.390;8.616;2024-03-08T08:45:15;19.98;;;13.73;;
37677;SDS011;23517;50.390;8.616;2024-03-08T08:47:47;18.33;;;14.07;;
37677;SDS011;23517;50.390;8.616;2024-03-08T08:50:15;18.83;;;14.13;;
37677;SDS011;23517;50.390;8.616;2024-03-08T08:52:49;18.10;;;13.60;;
37677;SDS011;23517;50.390;8.616;2024-03-08T08:55:16;19.73;;;14.65;;
37677;SDS011;23517;50.390;8.616;2024-03-08T08:57:47;17.13;;;13.13;;
37677;SDS011;23517;50.390;8.616;2024-03-08T09:00:15;15.95;;;13.48;;
37677;SDS011;23517;50.390;8.616;2024-03-08T09:02:42;18.27;;;13.65;;
37677;SDS011;23517;50.390;8.616;2024-03-08T09:05:09;17.27;;;14.43;;
37677;SDS011;23517;50.390;8.616;2024-03-08T09:07:37;18.33;;;12.95;;
37677;SDS011;23517;50.390;8.616;2024-03-08T09:10:05;17.33;;;14.18;;
37677;SDS011;23517;50.390;8.616;2024-03-08T09:12:43;20.90;;;14.18;;
37677;SDS011;23517;50.390;8.616;2024-03-08T09:15:10;17.05;;;13.35;;
37677;SDS011;23517;50.390;8.616;2024-03-08T09:17:39;18.45;;;13.85;;
37677;SDS011;23517;50.390;8.616;2024-03-08T09:20:07;17.52;;;13.07;;
37677;SDS011;23517;50.390;8.616;2024-03-08T09:22:36;17.23;;;14.38;;
37677;SDS011;23517;50.390;8.616;2024-03-08T09:25:03;18.38;;;12.45;;
37677;SDS011;23517;50.390;8.616;2024-03-08T09:27:31;17.77;;;12.98;;
37677;SDS011;23517;50.390;8.616;2024-03-08T09:29:59;15.65;;;12.32;;
37677;SDS011;23517;50.390;8.616;2024-03-08T09:32:27;17.88;;;12.95;;
37677;SDS011;23517;50.390;8.616;2024-03-08T09:34:54;16.05;;;12.65;;
37677;SDS011;23517;50.390;8.616;2024-03-08T09:37:22;14.98;;;11.70;;
37677;SDS011;23517;50.390;8.616;2024-03-08T09:39:49;14.88;;;11.90;;
37677;SDS011;23517;50.390;8.616;2024-03-08T09:42:16;15.68;;;12.80;;
37677;SDS011;23517;50.390;8.616;2024-03-08T09:44:46;16.52;;;12.02;;
37677;SDS011;23517;50.390;8.616;2024-03-08T09:47:13;16.35;;;12.05;;
37677;SDS011;23517;50.390;8.616;2024-03-08T09:49:41;16.35;;;12.65;;
37677;SDS011;23517;50.390;8.616;2024-03-08T09:52:09;14.95;;;12.20;;
37677;SDS011;23517;50.390;8.616;2024-03-08T09:54:38;13.50;;;11.35;;
37677;SDS011;23517;50.390;8.616;2024-03-08T09:57:06;15.23;;;11.68;;
37677;SDS011;23517;50.390;8.616;2024-03-08T09:59:35;14.60;;;11.45;;
37677;SDS011;23517;50.390;8.616;2024-03-08T10:02:02;15.77;;;11.52;;
37677;SDS011;23517;50.390;8.616;2024-03-08T10:04:29;17.33;;;11.65;;
37677;SDS011;23517;50.390;8.616;2024-03-08T10:07:03;13.95;;;11.77;;
37677;SDS011;23517;50.390;8.616;2024-03-08T10:09:30;18.48;;;12.18;;
37677;SDS011;23517;50.390;8.616;2024-03-08T10:11:57;14.52;;;11.05;;
37677;SDS011;23517;50.390;8.616;2024-03-08T10:14:24;14.60;;;11.15;;
37677;SDS011;23517;50.390;8.616;2024-03-08T10:16:54;14.85;;;11.13;;
37677;SDS011;23517;50.390;8.616;2024-03-08T10:19:26;15.85;;;11.85;;
37677;SDS011;23517;50.390;8.616;2024-03-08T10:21:56;15.05;;;11.10;;
37677;SDS011;23517;50.390;8.616;2024-03-08T10:24:25;14.95;;;10.73;;
37677;SDS011;23517;50.390;8.616;2024-03-08T10:27:01;13.98;;;11.00;;
37677;SDS011;23517;50.390;8.616;2024-03-08T10:29:33;14.32;;;10.30;;
37677;SDS011;23517;50.390;8.616;2024-03-08T10:32:00;16.30;;;11.63;;
37677;SDS011;23517;50.390;8.616;2024-03-08T10:34:28;16.45;;;11.60;;
37677;SDS011;23517;50.390;8.616;2024-03-08T10:36:56;15.73;;;11.70;;
37677;SDS011;23517;50.390;8.616;2024-03-08T10:39:34;14.95;;;10.95;;
37677;SDS011;23517;50.390;8.616;2024-03-08T10:42:03;15.20;;;11.20;;
37677;SDS011;23517;50.390;8.616;2024-03-08T10:47:25;18.33;;;11.10;;
37677;SDS011;23517;50.390;8.616;2024-03-08T10:50:32;14.85;;;10.50;;
37677;SDS011;23517;50.390;8.616;2024-03-08T10:52:52;16.10;;;10.45;;
37677;SDS011;23517;50.390;8.616;2024-03-08T10:55:19;17.15;;;10.95;;
37677;SDS011;23517;50.390;8.616;2024-03-08T10:57:52;17.58;;;10.55;;
37677;SDS011;23517;50.390;8.616;2024-03-08T11:00:19;15.13;;;10.15;;
37677;SDS011;23517;50.390;8.616;2024-03-08T11:02:56;13.80;;;9.93;;
37677;SDS011;23517;50.390;8.616;2024-03-08T11:05:38;15.00;;;10.48;;
37677;SDS011;23517;50.390;8.616;2024-03-08T11:08:19;14.25;;;10.27;;
37677;SDS011;23517;50.390;8.616;2024-03-08T11:16:11;16.83;;;11.02;;
37677;SDS011;23517;50.390;8.616;2024-03-08T11:18:59;26.80;;;14.80;;
37677;SDS011;23517;50.390;8.616;2024-03-08T11:22:00;12.52;;;9.38;;
37677;SDS011;23517;50.390;8.616;2024-03-08T11:24:36;15.63;;;9.60;;
37677;SDS011;23517;50.390;8.616;2024-03-08T11:27:06;14.80;;;9.55;;
37677;SDS011;23517;50.390;8.616;2024-03-08T11:29:33;15.88;;;10.68;;
37677;SDS011;23517;50.390;8.616;2024-03-08T11:32:12;13.98;;;9.38;;
37677;SDS011;23517;50.390;8.616;2024-03-08T11:34:42;14.05;;;9.77;;
37677;SDS011;23517;50.390;8.616;2024-03-08T11:37:14;15.15;;;9.27;;
37677;SDS011;23517;50.390;8.616;2024-03-08T11:39:47;14.32;;;9.75;;
37677;SDS011;23517;50.390;8.616;2024-03-08T11:42:16;14.52;;;9.10;;
37677;SDS011;23517;50.390;8.616;2024-03-08T11:44:46;13.90;;;9.88;;
37677;SDS011;23517;50.390;8.616;2024-03-08T11:47:14;13.43;;;9.63;;
37677;SDS011;23517;50.390;8.616;2024-03-08T11:49:42;14.93;;;9.88;;
37677;SDS011;23517;50.390;8.616;2024-03-08T11:52:11;12.95;;;9.15;;
37677;SDS011;23517;50.390;8.616;2024-03-08T11:54:51;14.55;;;9.25;;
37677;SDS011;23517;50.390;8.616;2024-03-08T11:57:23;15.07;;;9.55;;
37677;SDS011;23517;50.390;8.616;2024-03-08T11:59:51;14.70;;;9.80;;
37677;SDS011;23517;50.390;8.616;2024-03-08T12:02:23;14.75;;;9.98;;
37677;SDS011;23517;50.390;8.616;2024-03-08T12:04:57;15.77;;;9.85;;
37677;SDS011;23517;50.390;8.616;2024-03-08T12:07:27;15.63;;;9.75;;
37677;SDS011;23517;50.390;8.616;2024-03-08T12:12:46;16.08;;;10.45;;
37677;SDS011;23517;50.390;8.616;2024-03-08T12:15:21;12.90;;;9.50;;
37677;SDS011;23517;50.390;8.616;2024-03-08T12:17:50;14.57;;;9.55;;
37677;SDS011;23517;50.390;8.616;2024-03-08T12:20:19;14.60;;;9.80;;
37677;SDS011;23517;50.390;8.616;2024-03-08T12:22:55;15.10;;;9.43;;
37677;SDS011;23517;50.390;8.616;2024-03-08T12:25:29;15.82;;;9.20;;
37677;SDS011;23517;50.390;8.616;2024-03-08T12:30:45;13.60;;;9.30;;
37677;SDS011;23517;50.390;8.616;2024-03-08T12:33:19;13.57;;;9.25;;
37677;SDS011;23517;50.390;8.616;2024-03-08T12:35:52;14.52;;;9.80;;
37677;SDS011;23517;50.390;8.616;2024-03-08T12:38:22;15.30;;;10.32;;
37677;SDS011;23517;50.390;8.616;2024-03-08T12:40:54;14.05;;;9.80;;
37677;SDS011;23517;50.390;8.616;2024-03-08T12:43:23;16.92;;;9.85;;
37677;SDS011;23517;50.390;8.616;2024-03-08T12:45:50;15.18;;;10.25;;
37677;SDS011;23517;50.390;8.616;2024-03-08T12:48:17;15.65;;;10.40;;
37677;SDS011;23517;50.390;8.616;2024-03-08T12:50:45;13.40;;;9.52;;
37677;SDS011;23517;50.390;8.616;2024-03-08T12:53:14;14.55;;;10.32;;
37677;SDS011;23517;50.390;8.616;2024-03-08T12:55:41;13.82;;;9.70;;
37677;SDS011;23517;50.390;8.616;2024-03-08T12:58:08;14.32;;;10.00;;
37677;SDS011;23517;50.390;8.616;2024-03-08T13:00:35;14.75;;;9.77;;
37677;SDS011;23517;50.390;8.616;2024-03-08T13:03:09;14.00;;;9.90;;
37677;SDS011;23517;50.390;8.616;2024-03-08T13:05:37;17.00;;;11.48;;
37677;SDS011;23517;50.390;8.616;2024-03-08T13:08:06;15.52;;;10.35;;
37677;SDS011;23517;50.390;8.616;2024-03-08T13:10:41;16.20;;;9.80;;
37677;SDS011;23517;50.390;8.616;2024-03-08T13:13:10;18.67;;;10.23;;
37677;SDS011;23517;50.390;8.616;2024-03-08T13:15:43;16.42;;;9.60;;
37677;SDS011;23517;50.390;8.616;2024-03-08T13:18:10;13.98;;;9.65;;
37677;SDS011;23517;50.390;8.616;2024-03-08T13:20:37;15.73;;;9.55;;
37677;SDS011;23517;50.390;8.616;2024-03-08T13:23:13;15.93;;;10.18;;
37677;SDS011;23517;50.390;8.616;2024-03-08T13:25:40;14.43;;;10.05;;
37677;SDS011;23517;50.390;8.616;2024-03-08T13:28:07;15.18;;;9.63;;
37677;SDS011;23517;50.390;8.616;2024-03-08T13:30:35;15.57;;;9.95;;
37677;SDS011;23517;50.390;8.616;2024-03-08T13:33:02;14.48;;;10.15;;
37677;SDS011;23517;50.390;8.616;2024-03-08T13:35:31;16.05;;;9.60;;
37677;SDS011;23517;50.390;8.616;2024-03-08T13:37:58;15.35;;;10.55;;
37677;SDS011;23517;50.390;8.616;2024-03-08T13:40:25;16.55;;;10.65;;
37677;SDS011;23517;50.390;8.616;2024-03-08T13:42:52;14.82;;;10.35;;
37677;SDS011;23517;50.390;8.616;2024-03-08T13:45:19;13.30;;;9.88;;
37677;SDS011;23517;50.390;8.616;2024-03-08T13:47:51;17.48;;;10.02;;
37677;SDS011;23517;50.390;8.616;2024-03-08T13:50:20;16.65;;;10.93;;
37677;SDS011;23517;50.390;8.616;2024-03-08T13:52:52;14.43;;;10.65;;
37677;SDS011;23517;50.390;8.616;2024-03-08T13:55:21;15.73;;;10.40;;
37677;SDS011;23517;50.390;8.616;2024-03-08T13:57:51;18.95;;;11.00;;
37677;SDS011;23517;50.390;8.616;2024-03-08T14:00:18;15.60;;;10.45;;
37677;SDS011;23517;50.390;8.616;2024-03-08T14:02:51;15.88;;;10.55;;
37677;SDS011;23517;50.390;8.616;2024-03-08T14:05:20;16.48;;;10.93;;
37677;SDS011;23517;50.390;8.616;2024-03-08T14:07:47;16.55;;;11.40;;
37677;SDS011;23517;50.390;8.616;2024-03-08T14:10:16;16.38;;;10.73;;
37677;SDS011;23517;50.390;8.616;2024-03-08T14:12:46;16.40;;;11.15;;
37677;SDS011;23517;50.390;8.616;2024-03-08T14:15:16;17.95;;;11.00;;
37677;SDS011;23517;50.390;8.616;2024-03-08T14:17:43;18.10;;;10.63;;
37677;SDS011;23517;50.390;8.616;2024-03-08T14:20:13;17.35;;;11.70;;
37677;SDS011;23517;50.390;8.616;2024-03-08T14:22:39;16.27;;;11.32;;
37677;SDS011;23517;50.390;8.616;2024-03-08T14:25:06;17.33;;;11.90;;
37677;SDS011;23517;50.390;8.616;2024-03-08T14:27:45;16.65;;;11.57;;
37677;SDS011;23517;50.390;8.616;2024-03-08T14:30:13;16.55;;;11.40;;
37677;SDS011;23517;50.390;8.616;2024-03-08T14:32:58;16.83;;;12.13;;
37677;SDS011;23517;50.390;8.616;2024-03-08T14:35:28;19.20;;;11.13;;
37677;SDS011;23517;50.390;8.616;2024-03-08T14:37:55;21.70;;;12.05;;
37677;SDS011;23517;50.390;8.616;2024-03-08T14:40:24;18.48;;;11.45;;
37677;SDS011;23517;50.390;8.616;2024-03-08T14:42:52;18.02;;;11.95;;
37677;SDS011;23517;50.390;8.616;2024-03-08T14:45:19;17.25;;;11.57;;
37677;SDS011;23517;50.390;8.616;2024-03-08T14:47:46;17.08;;;11.98;;
37677;SDS011;23517;50.390;8.616;2024-03-08T14:50:17;17.75;;;11.52;;